Terminal Aerodrome Forecast
Issued by NWS St Louis, MO

Home | Current Version | Previous Version | Text Only | Print | Product List | Glossary On
Versions: 1 2 3 4 5 6 7 8 9 10 11 12 13
000
FTUS43 KLSX 211130
TAFCOU
TAF
KCOU 211130Z 2112/2212 16012KT P6SM SCT250 WS017/19040KT
     FM211400 17013G23KT P6SM SCT200
     FM220000 16012KT P6SM BKN060
     FM220300 17010KT P6SM VCTS OVC040CB
     FM220500 18010KT 3SM SHRA VCTS OVC035CB
     FM220900 26006KT 5SM -SHRA OVC015=

USA.gov is the U.S. government's official web portal to all federal, state and local government web resources and services.